Time;durP1;ratioP1;P1;durP2;ratioP2;P2;SDS_P1;SDS_P2;PMS_P1;PMS_P2;Temp;Humidity;BMP_temperature;BMP_pressure;BME280_temperature;BME280_humidity;BME280_pressure;Samples;Min_cycle;Max_cycle;Signal;HPM_P1;HPM_P2
2021/02/11 00:02:17;;;;;;;6.1;3.7;;;;;;;;;;;;;
2021/02/11 00:04:45;;;;;;;9;5.6;;;;;;;;;;;;;
2021/02/11 00:07:10;;;;;;;8.2;4.6;;;;;;;;;;;;;
2021/02/11 00:09:37;;;;;;;8.8;5;;;;;;;;;;;;;
2021/02/11 00:12:07;;;;;;;6.3;3.8;;;;;;;;;;;;;
2021/02/11 00:14:38;;;;;;;7.3;4.2;;;;;;;;;;;;;
2021/02/11 00:17:08;;;;;;;4.7;3.5;;;;;;;;;;;;;
2021/02/11 00:19:38;;;;;;;5.9;3.4;;;;;;;;;;;;;
2021/02/11 00:22:08;;;;;;;5.1;3.4;;;;;;;;;;;;;
2021/02/11 00:24:33;;;;;;;7.4;3.9;;;;;;;;;;;;;
2021/02/11 00:27:00;;;;;;;8.8;5.3;;;;;;;;;;;;;
2021/02/11 00:29:25;;;;;;;6.4;3.2;;;;;;;;;;;;;
2021/02/11 00:31:51;;;;;;;6.1;4.3;;;;;;;;;;;;;
2021/02/11 00:34:16;;;;;;;8.2;4.8;;;;;;;;;;;;;
2021/02/11 00:36:42;;;;;;;9.3;4.3;;;;;;;;;;;;;
2021/02/11 00:39:07;;;;;;;6.6;4.1;;;;;;;;;;;;;
2021/02/11 00:41:34;;;;;;;13.9;5.2;;;;;;;;;;;;;
2021/02/11 00:43:59;;;;;;;9.9;4.3;;;;;;;;;;;;;
2021/02/11 00:46:24;;;;;;;5.7;4.1;;;;;;;;;;;;;
2021/02/11 00:48:49;;;;;;;6.3;4.4;;;;;;;;;;;;;
2021/02/11 00:51:15;;;;;;;6.1;4;;;;;;;;;;;;;
2021/02/11 00:53:40;;;;;;;5.6;3.9;;;;;;;;;;;;;
2021/02/11 00:56:05;;;;;;;6;3.9;;;;;;;;;;;;;
2021/02/11 00:58:30;;;;;;;6.4;3.7;;;;;;;;;;;;;
2021/02/11 01:00:56;;;;;;;9.6;4.6;;;;;;;;;;;;;
2021/02/11 01:03:21;;;;;;;6.6;3.8;;;;;;;;;;;;;
2021/02/11 01:05:47;;;;;;;6.7;3.8;;;;;;;;;;;;;
2021/02/11 01:08:12;;;;;;;5.8;4.4;;;;;;;;;;;;;
2021/02/11 01:10:45;;;;;;;8.7;4.3;;;;;;;;;;;;;
2021/02/11 01:13:11;;;;;;;9.8;4.6;;;;;;;;;;;;;
2021/02/11 01:15:36;;;;;;;7.7;3.7;;;;;;;;;;;;;
2021/02/11 01:18:03;;;;;;;9.1;4.5;;;;;;;;;;;;;
2021/02/11 01:20:28;;;;;;;6.2;3.3;;;;;;;;;;;;;
2021/02/11 01:22:53;;;;;;;8;3.9;;;;;;;;;;;;;
2021/02/11 01:25:19;;;;;;;5.6;3.4;;;;;;;;;;;;;
2021/02/11 01:27:44;;;;;;;14.9;4.7;;;;;;;;;;;;;
2021/02/11 01:30:09;;;;;;;10.9;5.4;;;;;;;;;;;;;
2021/02/11 01:32:35;;;;;;;6.1;3.9;;;;;;;;;;;;;
2021/02/11 01:35:00;;;;;;;5.5;3.8;;;;;;;;;;;;;
2021/02/11 01:37:27;;;;;;;7;4.2;;;;;;;;;;;;;
2021/02/11 01:39:52;;;;;;;9;4.3;;;;;;;;;;;;;
2021/02/11 01:42:19;;;;;;;4.6;3.3;;;;;;;;;;;;;
2021/02/11 01:44:44;;;;;;;6.3;4.1;;;;;;;;;;;;;
2021/02/11 01:47:11;;;;;;;5.9;4.4;;;;;;;;;;;;;
2021/02/11 01:49:36;;;;;;;4.9;3.5;;;;;;;;;;;;;
2021/02/11 01:52:03;;;;;;;5.5;4;;;;;;;;;;;;;
2021/02/11 01:54:28;;;;;;;5.6;4;;;;;;;;;;;;;
2021/02/11 01:56:57;;;;;;;6.3;4.6;;;;;;;;;;;;;
2021/02/11 01:59:27;;;;;;;6;3.9;;;;;;;;;;;;;
2021/02/11 02:01:53;;;;;;;7.1;4.5;;;;;;;;;;;;;
2021/02/11 02:04:18;;;;;;;5.6;4.3;;;;;;;;;;;;;
2021/02/11 02:06:43;;;;;;;8.5;3.5;;;;;;;;;;;;;
2021/02/11 02:09:08;;;;;;;8.7;4.8;;;;;;;;;;;;;
2021/02/11 02:11:35;;;;;;;5.4;3.8;;;;;;;;;;;;;
2021/02/11 02:14:00;;;;;;;7.9;4.2;;;;;;;;;;;;;
2021/02/11 02:16:25;;;;;;;4.2;3.6;;;;;;;;;;;;;
2021/02/11 02:18:51;;;;;;;7.1;4.1;;;;;;;;;;;;;
2021/02/11 02:21:16;;;;;;;8.5;4.4;;;;;;;;;;;;;
2021/02/11 02:23:42;;;;;;;8;4.4;;;;;;;;;;;;;
2021/02/11 02:26:08;;;;;;;6;4.1;;;;;;;;;;;;;
2021/02/11 02:28:35;;;;;;;6.7;4;;;;;;;;;;;;;
2021/02/11 02:31:00;;;;;;;7;4.5;;;;;;;;;;;;;
2021/02/11 02:33:27;;;;;;;9.5;5.8;;;;;;;;;;;;;
2021/02/11 02:35:53;;;;;;;9;4.4;;;;;;;;;;;;;
2021/02/11 02:38:21;;;;;;;10;4.5;;;;;;;;;;;;;
2021/02/11 02:40:47;;;;;;;7;4;;;;;;;;;;;;;
2021/02/11 02:43:15;;;;;;;7.9;4;;;;;;;;;;;;;
2021/02/11 02:45:42;;;;;;;7.7;4.4;;;;;;;;;;;;;
2021/02/11 02:48:10;;;;;;;7.6;4.2;;;;;;;;;;;;;
2021/02/11 02:50:35;;;;;;;7.9;4.7;;;;;;;;;;;;;
2021/02/11 02:53:03;;;;;;;8.5;4.9;;;;;;;;;;;;;
2021/02/11 02:55:28;;;;;;;8.1;4.4;;;;;;;;;;;;;
2021/02/11 02:57:56;;;;;;;7.2;3.7;;;;;;;;;;;;;
2021/02/11 03:00:21;;;;;;;9.3;4;;;;;;;;;;;;;
2021/02/11 03:02:46;;;;;;;11.3;4.7;;;;;;;;;;;;;
2021/02/11 03:05:11;;;;;;;6.9;2.9;;;;;;;;;;;;;
2021/02/11 03:07:37;;;;;;;5.2;2.9;;;;;;;;;;;;;
2021/02/11 03:10:02;;;;;;;6.6;3.9;;;;;;;;;;;;;
2021/02/11 03:12:30;;;;;;;8.3;4.5;;;;;;;;;;;;;
2021/02/11 03:14:55;;;;;;;5.9;3.4;;;;;;;;;;;;;
2021/02/11 03:17:28;;;;;;;5;3.7;;;;;;;;;;;;;
2021/02/11 03:19:57;;;;;;;7.7;4.7;;;;;;;;;;;;;
2021/02/11 03:22:26;;;;;;;6.5;4.5;;;;;;;;;;;;;
2021/02/11 03:24:51;;;;;;;5.7;4.4;;;;;;;;;;;;;
2021/02/11 03:27:19;;;;;;;9.8;4.8;;;;;;;;;;;;;
2021/02/11 03:29:44;;;;;;;7.3;4;;;;;;;;;;;;;
2021/02/11 03:32:12;;;;;;;7.3;4.2;;;;;;;;;;;;;
2021/02/11 03:34:38;;;;;;;6.7;4.3;;;;;;;;;;;;;
2021/02/11 03:37:05;;;;;;;6.2;4.1;;;;;;;;;;;;;
2021/02/11 03:39:30;;;;;;;8;4;;;;;;;;;;;;;
2021/02/11 03:42:01;;;;;;;7.2;4.5;;;;;;;;;;;;;
2021/02/11 03:44:29;;;;;;;6.7;3.9;;;;;;;;;;;;;
2021/02/11 03:46:55;;;;;;;10.4;4.9;;;;;;;;;;;;;
2021/02/11 03:49:23;;;;;;;8.7;5;;;;;;;;;;;;;
2021/02/11 03:51:48;;;;;;;7.9;4.6;;;;;;;;;;;;;
2021/02/11 03:54:14;;;;;;;11.2;4.7;;;;;;;;;;;;;
2021/02/11 03:56:40;;;;;;;8.6;4.3;;;;;;;;;;;;;
2021/02/11 03:59:06;;;;;;;8.7;3.9;;;;;;;;;;;;;
2021/02/11 04:02:34;;;;;;;6.8;3.9;;;;;;;-5.93;77.44043;937.8808;;;;
2021/02/11 04:05:01;;;;;;;6.2;3.9;;;;;;;-5.98;77.5625;937.8974;;;;
2021/02/11 04:07:33;;;;;;;5;3.3;;;;;;;-6.02;77.57715;938.0916;;;;
2021/02/11 04:10:06;;;;;;;8.4;5.1;;;;;;;-6.07;77.65723;938.0828;;;;
2021/02/11 04:12:38;;;;;;;6.2;3.2;;;;;;;-5.93;77.33984;938.0628;;;;
2021/02/11 04:15:13;;;;;;;8.3;3.5;;;;;;;-6.09;77.16895;938.177;;;;
2021/02/11 04:17:47;;;;;;;5.7;3.9;;;;;;;-6.3;78.08496;938.2327;;;;
2021/02/11 04:20:27;;;;;;;4.1;2.6;;;;;;;-6.35;78.19531;938.2415;;;;
2021/02/11 04:23:03;;;;;;;7.2;4;;;;;;;-6.33;78.08008;938.2506;;;;
2021/02/11 04:25:45;;;;;;;5;3.5;;;;;;;-6.34;78.33008;938.2174;;;;
2021/02/11 04:28:14;;;;;;;2.6;2.4;;;;;;;-6.59;78.45801;938.4297;;;;
2021/02/11 04:30:40;;;;;;;4;3.1;;;;;;;-6.51;78.53906;938.2238;;;;
2021/02/11 04:33:07;;;;;;;5;3;;;;;;;-6.45;78.04492;938.3387;;;;
2021/02/11 04:35:34;;;;;;;6.2;2.9;;;;;;;-6.68;78.02441;938.4241;;;;
2021/02/11 04:38:02;;;;;;;7.2;2.9;;;;;;;-6.62;78.66016;938.455;;;;
2021/02/11 04:40:27;;;;;;;8.8;2.9;;;;;;;-6.62;78.2998;938.5106;;;;
2021/02/11 04:42:55;;;;;;;8;3.2;;;;;;;-6.51;78.3291;938.5012;;;;
2021/02/11 04:45:21;;;;;;;4.2;2.7;;;;;;;-6.64;78.12988;938.5372;;;;
2021/02/11 04:47:46;;;;;;;6.8;3.6;;;;;;;-6.75;78.58105;938.6465;;;;
2021/02/11 04:50:11;;;;;;;5.2;2.9;;;;;;;-6.93;78.99609;938.5594;;;;
2021/02/11 04:52:36;;;;;;;4.5;2.9;;;;;;;-6.74;79.38281;938.6794;;;;
2021/02/11 04:55:02;;;;;;;4.3;2.5;;;;;;;-6.56;78.66113;938.6992;;;;
2021/02/11 04:57:27;;;;;;;5.2;3.5;;;;;;;-6.65;78.6875;938.6855;;;;
2021/02/11 04:59:52;;;;;;;5.1;3.6;;;;;;;-6.56;78.35352;938.889;;;;
2021/02/11 05:02:18;;;;;;;4.1;2.7;;;;;;;-6.62;77.89258;938.9908;;;;
2021/02/11 05:04:45;;;;;;;5.4;3.4;;;;;;;-6.96;78.96875;938.9363;;;;
2021/02/11 05:07:11;;;;;;;5.4;2.8;;;;;;;-6.86;78.35059;938.8976;;;;
2021/02/11 05:09:37;;;;;;;9.9;3.5;;;;;;;-6.83;78.83789;938.903;;;;
2021/02/11 05:12:10;;;;;;;2.6;2.3;;;;;;;-6.93;79.18262;939.0273;;;;
2021/02/11 05:14:36;;;;;;;3.5;2.6;;;;;;;-6.72;78.99219;938.9741;;;;
2021/02/11 05:17:06;;;;;;;4.9;3.3;;;;;;;-6.75;78.60449;939.0516;;;;
2021/02/11 05:19:37;;;;;;;5.1;3.4;;;;;;;-6.67;78.62793;939.0892;;;;
2021/02/11 05:22:03;;;;;;;7.6;3.7;;;;;;;-6.77;78.42383;939.0419;;;;
2021/02/11 05:24:33;;;;;;;4.1;2.2;;;;;;;-6.91;78.66113;939.116;;;;
2021/02/11 05:27:04;;;;;;;5.4;3.4;;;;;;;-7.01;79.01367;939.1761;;;;
2021/02/11 05:29:33;;;;;;;6;3.6;;;;;;;-6.83;78.75195;939.1934;;;;
2021/02/11 05:31:58;;;;;;;5.2;2.7;;;;;;;-6.86;78.16406;939.2753;;;;
2021/02/11 05:34:24;;;;;;;3.4;2.9;;;;;;;-6.87;77.91211;939.2941;;;;
2021/02/11 05:36:50;;;;;;;6.1;3.5;;;;;;;-6.99;78.38184;939.384;;;;
2021/02/11 05:39:15;;;;;;;8.3;2.5;;;;;;;-6.73;77.49902;939.3834;;;;
2021/02/11 05:41:41;;;;;;;4;3.1;;;;;;;-6.88;78.19531;939.3949;;;;
2021/02/11 05:44:06;;;;;;;7.4;3.5;;;;;;;-7.02;77.93848;939.3843;;;;
2021/02/11 05:46:35;;;;;;;8.7;3.6;;;;;;;-7;78.57715;939.5019;;;;
2021/02/11 05:49:13;;;;;;;4.9;2.9;;;;;;;-6.89;77.8418;939.5541;;;;
2021/02/11 05:51:46;;;;;;;3.9;2.7;;;;;;;-6.91;77.94727;939.5134;;;;
2021/02/11 05:54:19;;;;;;;4.9;3.1;;;;;;;-7.16;78.52637;939.6097;;;;
2021/02/11 05:56:45;;;;;;;11;3;;;;;;;-7.15;78.53906;939.6528;;;;
2021/02/11 05:59:16;;;;;;;7;3;;;;;;;-7.01;79.19922;939.7313;;;;
2021/02/11 06:01:46;;;;;;;7.7;3;;;;;;;-6.86;78.90039;939.7478;;;;
2021/02/11 06:04:16;;;;;;;3.7;2.3;;;;;;;-7.09;78.9209;939.8152;;;;
2021/02/11 06:06:49;;;;;;;3.8;2.9;;;;;;;-7.08;79.20801;939.8017;;;;
2021/02/11 06:09:14;;;;;;;3.9;2.6;;;;;;;-6.93;78.65625;939.8285;;;;
2021/02/11 06:11:40;;;;;;;4.2;2.9;;;;;;;-6.91;78.03711;939.9812;;;;
2021/02/11 06:14:05;;;;;;;2.7;2.2;;;;;;;-6.88;77.79883;940.0136;;;;
2021/02/11 06:16:35;;;;;;;3.2;2.3;;;;;;;-7.12;78.41211;940.1193;;;;
2021/02/11 06:19:08;;;;;;;4.1;2.4;;;;;;;-7.09;78.61621;940.0963;;;;
2021/02/11 06:21:31;;;;;;;7.7;3.4;;;;;;;-7.08;78.08105;940.1404;;;;
2021/02/11 06:24:01;;;;;;;8;2.3;;;;;;;-7.27;78.53711;940.2274;;;;
2021/02/11 06:26:32;;;;;;;4.1;2.6;;;;;;;-7.17;78.08496;940.267;;;;
2021/02/11 06:29:05;;;;;;;2.8;2.4;;;;;;;-7.17;77.51563;940.3315;;;;
2021/02/11 06:31:34;;;;;;;4;2.8;;;;;;;-7.17;77.50391;940.312;;;;
2021/02/11 06:34:11;;;;;;;8.8;3.2;;;;;;;-7.19;77.22754;940.3655;;;;
2021/02/11 06:36:37;;;;;;;4.1;2.3;;;;;;;-7.4;78.16211;940.4666;;;;
2021/02/11 06:39:05;;;;;;;4.8;3.2;;;;;;;-7.24;77.4248;940.4799;;;;
2021/02/11 06:41:40;;;;;;;2.9;2.3;;;;;;;-7.27;77.03809;940.4216;;;;
2021/02/11 06:44:05;;;;;;;4.9;1.8;;;;;;;-7.08;77.22754;940.6062;;;;
2021/02/11 06:46:30;;;;;;;4.2;2.6;;;;;;;-7.13;76.96484;940.592;;;;
2021/02/11 06:48:55;;;;;;;4.5;2.2;;;;;;;-6.99;76.74902;940.6359;;;;
2021/02/11 06:51:21;;;;;;;4.7;3.3;;;;;;;-6.81;76.03711;940.5742;;;;
2021/02/11 06:53:46;;;;;;;4.7;2.7;;;;;;;-6.68;75.25977;940.6462;;;;
2021/02/11 06:56:12;;;;;;;1.7;1.6;;;;;;;-6.64;75.08398;940.7441;;;;
2021/02/11 06:58:37;;;;;;;2.8;2.4;;;;;;;-7.11;75.29297;940.8535;;;;
2021/02/11 07:01:02;;;;;;;4.9;2.7;;;;;;;-7.05;75.55664;940.9152;;;;
2021/02/11 07:03:27;;;;;;;2.7;2.2;;;;;;;-7.12;75.29102;940.9641;;;;
2021/02/11 07:05:52;;;;;;;2.8;1.7;;;;;;;-7.17;75.65332;940.9607;;;;
2021/02/11 07:08:17;;;;;;;6.9;3.1;;;;;;;-7.14;75.66992;941.0374;;;;
2021/02/11 07:10:46;;;;;;;6.5;3.4;;;;;;;-7.33;75.39551;941.0681;;;;
2021/02/11 07:13:16;;;;;;;9.1;3.9;;;;;;;-7.29;75.86426;941.1192;;;;
2021/02/11 07:16:01;;;;;;;4;2.5;;;;;;;-7.47;76.08105;941.2076;;;;
2021/02/11 07:18:32;;;;;;;4;2.2;;;;;;;-7.22;75.92969;941.1976;;;;
2021/02/11 07:21:07;;;;;;;2.1;1.9;;;;;;;-7.38;75.8457;941.2255;;;;
2021/02/11 07:23:35;;;;;;;6.4;3.5;;;;;;;-7.62;76.56641;941.2759;;;;
2021/02/11 07:26:03;;;;;;;4.4;2;;;;;;;-7.58;78.04102;941.3784;;;;
2021/02/11 07:28:38;;;;;;;3.6;2.9;;;;;;;-7.5;77.09375;941.486;;;;
2021/02/11 07:31:12;;;;;;;2.4;1.8;;;;;;;-7.51;77.28906;941.4918;;;;
2021/02/11 07:33:44;;;;;;;4.9;2.2;;;;;;;-7.34;76.84863;941.4752;;;;
2021/02/11 07:36:11;;;;;;;5.3;2.6;;;;;;;-7.32;76.41504;941.5458;;;;
2021/02/11 07:38:42;;;;;;;7.4;2.4;;;;;;;-7.32;75.43945;941.5;;;;
2021/02/11 07:41:08;;;;;;;2.4;2.1;;;;;;;-7.19;75.46387;941.6464;;;;
2021/02/11 07:43:33;;;;;;;5.5;1.9;;;;;;;-7.4;75.45898;941.6418;;;;
2021/02/11 07:46:03;;;;;;;5.4;2.5;;;;;;;-7.13;75.30957;941.6097;;;;
2021/02/11 07:48:34;;;;;;;4.5;2.4;;;;;;;-7.12;74.78711;941.6672;;;;
2021/02/11 07:51:06;;;;;;;6;2.3;;;;;;;-7.31;74.58887;941.7205;;;;
2021/02/11 07:53:36;;;;;;;2.9;2.3;;;;;;;-6.95;74.12793;941.6997;;;;
2021/02/11 07:56:09;;;;;;;5.3;2.4;;;;;;;-7.21;73.64355;941.7544;;;;
2021/02/11 07:58:40;;;;;;;4.2;2.9;;;;;;;-6.92;73.35547;941.7651;;;;
2021/02/11 08:01:05;;;;;;;4;2.1;;;;;;;-7;73.33008;941.9058;;;;
2021/02/11 08:03:30;;;;;;;3.3;2.6;;;;;;;-6.84;73.54492;941.8865;;;;
2021/02/11 08:05:59;;;;;;;3.9;2;;;;;;;-6.81;73.30859;941.84;;;;
2021/02/11 08:08:30;;;;;;;2.4;2.1;;;;;;;-6.78;73.10547;941.8758;;;;
2021/02/11 08:10:56;;;;;;;6.2;2.2;;;;;;;-6.64;72.69141;941.9294;;;;
2021/02/11 08:13:27;;;;;;;4.5;2.2;;;;;;;-6.78;73.47754;941.9501;;;;
2021/02/11 08:16:00;;;;;;;4.2;2.5;;;;;;;-6.56;72.24512;941.9892;;;;
2021/02/11 08:18:28;;;;;;;9.4;3.3;;;;;;;-6.57;71.40918;942.0076;;;;
2021/02/11 08:20:55;;;;;;;6.7;2.9;;;;;;;-6.53;71.31836;941.8817;;;;
2021/02/11 08:23:20;;;;;;;3.4;2.6;;;;;;;-6.64;70.13867;941.9871;;;;
2021/02/11 08:25:53;;;;;;;3.5;2.3;;;;;;;-6.53;70.18848;942.052;;;;
2021/02/11 08:28:17;;;;;;;4.3;3.4;;;;;;;-6.65;70.35352;942.0391;;;;
2021/02/11 08:30:48;;;;;;;4.2;2.2;;;;;;;-6.73;71.4375;941.9705;;;;
2021/02/11 08:33:21;;;;;;;3.5;3.1;;;;;;;-6.69;71.03906;942.0322;;;;
2021/02/11 08:36:17;;;;;;;3.8;2.3;;;;;;;-6.8;70.87695;941.8872;;;;
2021/02/11 08:38:44;;;;;;;2.7;1.8;;;;;;;-6.62;70.33887;942.1172;;;;
2021/02/11 08:41:13;;;;;;;3.3;2.3;;;;;;;-6.8;70.91016;942.1203;;;;
2021/02/11 08:43:38;;;;;;;8.3;3.8;;;;;;;-6.51;70.68652;942.0438;;;;
2021/02/11 08:46:03;;;;;;;4.3;3;;;;;;;-6.54;69.95801;942.0779;;;;
2021/02/11 08:49:20;;;;;;;6.2;3.3;;;;;;;-6.33;70.27637;942.142;;;;
2021/02/11 08:51:45;;;;;;;7.1;1.9;;;;;;;-6.5;68.94238;942.0837;;;;
2021/02/11 08:54:13;;;;;;;3.2;2.2;;;;;;;-6.23;69.18652;942.2459;;;;
2021/02/11 08:56:38;;;;;;;6.1;3.1;;;;;;;-6.45;69.23828;942.1934;;;;
2021/02/11 08:59:04;;;;;;;5.6;2.9;;;;;;;-6.16;69.04492;942.1964;;;;
2021/02/11 09:01:30;;;;;;;4.8;2.6;;;;;;;-6.25;67.54688;942.1953;;;;
2021/02/11 09:03:55;;;;;;;5.3;2.6;;;;;;;-6.09;67.66113;942.2386;;;;
2021/02/11 09:06:22;;;;;;;3.2;2.3;;;;;;;-6.35;67.53223;942.3215;;;;
2021/02/11 09:08:48;;;;;;;3.6;2.7;;;;;;;-6.02;68.01367;942.3117;;;;
2021/02/11 09:11:15;;;;;;;6.6;2.2;;;;;;;-5.79;67.66602;942.2742;;;;
2021/02/11 09:13:40;;;;;;;2.8;2.5;;;;;;;-5.6;67.00391;942.2779;;;;
2021/02/11 09:16:05;;;;;;;4;2.8;;;;;;;-5.44;66.77734;942.3148;;;;
2021/02/11 09:18:31;;;;;;;5.5;2.6;;;;;;;-5.41;67.00195;942.2318;;;;
2021/02/11 09:20:56;;;;;;;13.4;3.4;;;;;;;-5.21;66.38574;942.3377;;;;
2021/02/11 09:23:22;;;;;;;4.8;3.1;;;;;;;-5.17;64.45508;942.4043;;;;
2021/02/11 09:25:48;;;;;;;4.9;2.3;;;;;;;-5.11;65.20215;942.4558;;;;
2021/02/11 09:28:13;;;;;;;3.9;2.4;;;;;;;-4.95;64.65527;942.4437;;;;
2021/02/11 09:30:38;;;;;;;5.1;2.6;;;;;;;-4.72;63.79688;942.378;;;;
2021/02/11 09:33:03;;;;;;;4;2.4;;;;;;;-4.75;64.80566;942.2556;;;;
2021/02/11 09:35:29;;;;;;;3.9;3;;;;;;;-4.32;63.35156;942.3513;;;;
2021/02/11 09:37:55;;;;;;;5.6;3.1;;;;;;;-4.23;62.1084;942.4333;;;;
2021/02/11 09:40:23;;;;;;;4.4;1.7;;;;;;;-4.25;61.73047;942.4303;;;;
2021/02/11 09:42:49;;;;;;;4.3;2.5;;;;;;;-4.53;63.38477;942.4928;;;;
2021/02/11 09:45:21;;;;;;;4.9;2.9;;;;;;;-4.59;63.1123;942.4344;;;;
2021/02/11 09:47:48;;;;;;;2.8;2.3;;;;;;;-4.08;62.74902;942.5335;;;;
2021/02/11 09:50:14;;;;;;;5.4;2.8;;;;;;;-4.27;62.54395;942.5455;;;;
2021/02/11 09:52:44;;;;;;;6.3;3.1;;;;;;;-4.43;62.77344;942.6169;;;;
2021/02/11 09:55:10;;;;;;;3.6;2.3;;;;;;;-4.16;61.7002;942.5972;;;;
2021/02/11 09:57:39;;;;;;;2.5;2.1;;;;;;;-4.06;61.39453;942.5969;;;;
2021/02/11 10:00:04;;;;;;;6.2;2.6;;;;;;;-3.98;60.6875;942.5847;;;;
2021/02/11 10:02:29;;;;;;;6.1;2.6;;;;;;;-4.08;61.56738;942.5959;;;;
2021/02/11 10:04:59;;;;;;;5.2;2.2;;;;;;;-4.15;61.39258;942.6301;;;;
2021/02/11 10:07:24;;;;;;;4.3;2.8;;;;;;;-4.08;60.7627;942.6346;;;;
2021/02/11 10:09:50;;;;;;;5.4;3.3;;;;;;;-3.98;59.72754;942.7879;;;;
2021/02/11 10:12:15;;;;;;;5.6;2.9;;;;;;;-4.14;60.57715;942.7127;;;;
2021/02/11 10:14:40;;;;;;;4.3;2.4;;;;;;;-3.94;60.7832;942.8038;;;;
2021/02/11 10:17:08;;;;;;;4.1;2.8;;;;;;;-3.87;61.69922;942.8621;;;;
2021/02/11 10:19:33;;;;;;;7.1;2.6;;;;;;;-3.73;61.5752;942.9316;;;;
2021/02/11 10:22:02;;;;;;;4;2.8;;;;;;;-3.64;60.30664;942.9718;;;;
2021/02/11 10:24:27;;;;;;;3.9;2.5;;;;;;;-3.71;59.41504;942.8524;;;;
2021/02/11 10:26:58;;;;;;;4.1;3.1;;;;;;;-3.79;60.53906;942.998;;;;
2021/02/11 10:30:38;;;;;;;6.1;3.1;;;;;;;-4.43;60.77832;942.9231;;;;
2021/02/11 10:33:03;;;;;;;4.9;3.1;;;;;;;-4.66;61.3623;943.0405;;;;
2021/02/11 10:35:28;;;;;;;3.5;2.5;;;;;;;-4.87;62.94922;942.9827;;;;
2021/02/11 10:37:56;;;;;;;3.5;2.6;;;;;;;-5.13;64.91309;943.0209;;;;
2021/02/11 10:40:21;;;;;;;4;2.8;;;;;;;-4.84;64.40625;943.0439;;;;
2021/02/11 10:42:49;;;;;;;5.2;3;;;;;;;-5.21;65.76953;943.1089;;;;
2021/02/11 10:45:14;;;;;;;2.8;2.2;;;;;;;-5.14;64.74707;943.0931;;;;
2021/02/11 10:47:43;;;;;;;5.6;2.3;;;;;;;-5.11;65.89551;943.0649;;;;
2021/02/11 10:50:14;;;;;;;2.8;2.4;;;;;;;-4.92;64.10742;942.8856;;;;
2021/02/11 10:52:39;;;;;;;4;2.5;;;;;;;-5.02;64.52148;942.9192;;;;
2021/02/11 10:55:05;;;;;;;5;3.5;;;;;;;-4.85;64.20703;942.9736;;;;
2021/02/11 10:57:35;;;;;;;10.5;3.1;;;;;;;-5.18;65.54297;942.9877;;;;
2021/02/11 11:00:04;;;;;;;4.3;2.5;;;;;;;-5.29;65.32813;943.0006;;;;
2021/02/11 11:02:30;;;;;;;7.6;2.7;;;;;;;-5.24;64.97168;942.9554;;;;
2021/02/11 11:04:55;;;;;;;8;2.8;;;;;;;-5.33;65.40918;942.9805;;;;
2021/02/11 11:07:26;;;;;;;9.7;3.7;;;;;;;-5.34;66.14453;942.9928;;;;
2021/02/11 11:09:46;;;;;;;9;3.9;;;;;;;-5.06;65.31934;942.9528;;;;
2021/02/11 11:12:15;;;;;;;6.8;3;;;;;;;-4.66;64.10547;942.9172;;;;
2021/02/11 11:14:58;;;;;;;2.8;2.5;;;;;;;-4.56;62.58691;942.9281;;;;
2021/02/11 11:17:10;;;;;;;3.4;2.4;;;;;;;-4.57;63.5332;942.8855;;;;
2021/02/11 11:19:35;;;;;;;4.1;3;;;;;;;-4.47;62.28125;942.884;;;;
2021/02/11 11:22:00;;;;;;;13.3;3.7;;;;;;;-4.11;62.41211;942.8872;;;;
2021/02/11 11:24:25;;;;;;;8.2;2.8;;;;;;;-4.01;59.74609;942.8596;;;;
2021/02/11 11:26:55;;;;;;;3.9;2.5;;;;;;;-4.23;60.34375;942.8652;;;;
2021/02/11 11:29:20;;;;;;;5.1;3.3;;;;;;;-4.58;61.53809;942.8465;;;;
2021/02/11 11:31:50;;;;;;;5.5;2.6;;;;;;;-4.66;62.60645;942.883;;;;
2021/02/11 11:34:20;;;;;;;4.4;2.8;;;;;;;-4.43;62.44238;942.9004;;;;
2021/02/11 11:36:45;;;;;;;3;2.1;;;;;;;-4.34;61.2207;942.7637;;;;
2021/02/11 11:39:12;;;;;;;5;3;;;;;;;-4.27;60.45801;942.7944;;;;
2021/02/11 11:41:37;;;;;;;6.6;2.8;;;;;;;-4.22;60.98438;942.8036;;;;
2021/02/11 11:44:07;;;;;;;7;2.2;;;;;;;-4.36;61.53809;942.8467;;;;
2021/02/11 11:46:32;;;;;;;5.4;3.2;;;;;;;-4.48;62.87598;942.8464;;;;
2021/02/11 11:49:01;;;;;;;3.3;2.8;;;;;;;-4.48;62.43555;942.8417;;;;
2021/02/11 11:51:27;;;;;;;5.8;2.3;;;;;;;-4.08;61.44727;942.829;;;;
2021/02/11 11:53:52;;;;;;;4;2.7;;;;;;;-3.94;61.0918;942.8644;;;;
2021/02/11 11:56:17;;;;;;;3;2.3;;;;;;;-3.75;60.45703;942.8928;;;;
2021/02/11 11:58:42;;;;;;;10.9;3.5;;;;;;;-3.49;59.72168;942.8488;;;;
2021/02/11 12:01:07;;;;;;;6.2;3.2;;;;;;;-3.39;59.57031;942.8878;;;;
2021/02/11 12:03:37;;;;;;;4;2.8;;;;;;;-3.53;59.7168;942.8002;;;;
2021/02/11 12:06:09;;;;;;;5.5;3.1;;;;;;;-3.66;60.93359;942.9185;;;;
2021/02/11 12:08:39;;;;;;;7.8;2.3;;;;;;;-3.32;59.58008;942.7877;;;;
2021/02/11 12:11:10;;;;;;;4.8;2.7;;;;;;;-3.17;57.83203;942.8315;;;;
2021/02/11 12:13:35;;;;;;;3.9;2.5;;;;;;;-2.89;56.875;942.853;;;;
2021/02/11 12:16:00;;;;;;;6.4;4;;;;;;;-2.96;55.80469;942.8203;;;;
2021/02/11 12:18:25;;;;;;;3.6;3;;;;;;;-3.24;56.33105;942.8897;;;;
2021/02/11 12:20:51;;;;;;;3;2.4;;;;;;;-3.25;57.08105;942.9246;;;;
2021/02/11 12:23:20;;;;;;;3.6;2.5;;;;;;;-3.29;56.01367;942.837;;;;
2021/02/11 12:25:45;;;;;;;6.3;3.2;;;;;;;-2.95;55.91699;942.8281;;;;
2021/02/11 12:28:11;;;;;;;5.1;2.9;;;;;;;-2.78;54.03613;942.8161;;;;
2021/02/11 12:30:41;;;;;;;4.2;2.6;;;;;;;-3.04;54.23438;942.7656;;;;
2021/02/11 12:33:06;;;;;;;4.1;2.4;;;;;;;-2.56;54.30762;942.6852;;;;
2021/02/11 12:35:31;;;;;;;4.1;2.3;;;;;;;-2.64;52.70313;942.8017;;;;
2021/02/11 12:38:01;;;;;;;6.3;2.5;;;;;;;-2.62;53.28027;942.8239;;;;
2021/02/11 12:40:23;;;;;;;3.5;2.5;;;;;;;-2.56;53.54297;942.8067;;;;
2021/02/11 12:42:52;;;;;;;5.9;3.2;;;;;;;-2.35;53.72656;942.7731;;;;
2021/02/11 12:45:16;;;;;;;5.2;2.4;;;;;;;-2.52;53.36133;942.7414;;;;
2021/02/11 12:47:43;;;;;;;5.6;2.6;;;;;;;-2.25;53.9375;942.709;;;;
2021/02/11 12:50:08;;;;;;;5.3;3.9;;;;;;;-2;52.91602;942.8116;;;;
2021/02/11 12:52:34;;;;;;;6.1;2.5;;;;;;;-2.07;53.41699;942.7668;;;;
2021/02/11 12:55:00;;;;;;;5.2;3;;;;;;;-1.82;52.01855;942.8028;;;;
2021/02/11 12:57:26;;;;;;;8.1;3.3;;;;;;;-2;52.3291;942.8007;;;;
2021/02/11 12:59:52;;;;;;;9.2;3.8;;;;;;;-2.11;52.1377;942.8127;;;;
2021/02/11 13:02:28;;;;;;;8.5;4.2;;;;;;;-1.3;50.97266;942.7955;;;;
2021/02/11 13:04:53;;;;;;;4.8;2.5;;;;;;;-1.01;50.07422;942.8107;;;;
2021/02/11 13:07:18;;;;;;;5.9;3.4;;;;;;;-0.14;48.72949;942.8058;;;;
2021/02/11 13:09:46;;;;;;;6.9;3.2;;;;;;;0.23;46.45508;942.7438;;;;
2021/02/11 13:13:36;;;;;;;10.2;3;;;;;;;-0.44;48.37207;942.7845;;;;
2021/02/11 13:16:49;;;;;;;5.1;3.1;;;;;;;0.76;45.42969;942.7985;;;;
2021/02/11 13:19:28;;;;;;;8.3;3.7;;;;;;;1.52;43.35449;942.7684;;;;
2021/02/11 13:22:06;;;;;;;10.3;5.2;;;;;;;2.28;42.43555;942.8162;;;;
2021/02/11 13:25:19;;;;;;;8.9;4;;;;;;;2.66;41.2627;942.7881;;;;
2021/02/11 13:28:16;;;;;;;7.3;3.8;;;;;;;4.33;37.33984;942.6767;;;;
2021/02/11 13:31:24;;;;;;;6.6;3.9;;;;;;;5.28;35.30273;942.6985;;;;
2021/02/11 13:34:38;;;;;;;4.4;2.7;;;;;;;5.2;34.62988;942.6945;;;;
2021/02/11 13:37:29;;;;;;;4.1;2.7;;;;;;;6.11;33.03223;942.6631;;;;
2021/02/11 13:41:16;;;;;;;6.1;1.9;;;;;;;5.28;34.73926;942.7594;;;;
2021/02/11 13:44:34;;;;;;;2.5;1.9;;;;;;;4.62;34.98926;942.7308;;;;
2021/02/11 13:46:59;;;;;;;3.8;2.1;;;;;;;4.78;36.27441;942.7436;;;;
2021/02/11 13:50:05;;;;;;;4;2.2;;;;;;;5.73;34.1875;942.6406;;;;
2021/02/11 13:52:32;;;;;;;2.6;1.9;;;;;;;6.78;32.74414;942.5809;;;;
2021/02/11 13:54:58;;;;;;;3.5;1.9;;;;;;;6.25;32.31934;942.6237;;;;
2021/02/11 13:57:24;;;;;;;4.8;1.6;;;;;;;6.51;32.83594;942.6356;;;;
2021/02/11 13:59:51;;;;;;;4.1;1.8;;;;;;;6.37;32.62207;942.6206;;;;
2021/02/11 14:02:16;;;;;;;3.6;3;;;;;;;5.94;32.83789;942.6777;;;;
2021/02/11 14:04:46;;;;;;;3.3;1.8;;;;;;;4.38;35.35156;942.7299;;;;
2021/02/11 14:07:17;;;;;;;2.9;2.2;;;;;;;3.54;36.67578;942.7471;;;;
2021/02/11 14:09:46;;;;;;;3.6;2.2;;;;;;;3.16;38.10156;942.8199;;;;
2021/02/11 14:12:17;;;;;;;2.9;1.9;;;;;;;3.64;38.05371;942.8555;;;;
2021/02/11 14:14:42;;;;;;;2.3;1.9;;;;;;;3.64;37.63867;942.9061;;;;
2021/02/11 14:17:13;;;;;;;4.3;2.4;;;;;;;4.09;36.23828;942.9127;;;;
2021/02/11 14:19:42;;;;;;;2.7;1.8;;;;;;;4.12;35.80273;942.9174;;;;
2021/02/11 14:22:08;;;;;;;2.9;2;;;;;;;4.18;35.3125;942.9415;;;;
2021/02/11 14:26:00;;;;;;;3.2;2;;;;;;;2.7;38.38477;942.9587;;;;
2021/02/11 14:28:26;;;;;;;6.4;1.7;;;;;;;3.07;37.65527;943.0273;;;;
2021/02/11 14:30:51;;;;;;;3;2.2;;;;;;;3.24;38.46875;943.0187;;;;
2021/02/11 14:33:16;;;;;;;3.3;2.2;;;;;;;2.41;38.90723;943.113;;;;
2021/02/11 14:35:41;;;;;;;5.1;2.3;;;;;;;2.06;40.63281;943.0815;;;;
2021/02/11 14:38:06;;;;;;;7.3;2.4;;;;;;;3.26;39.19922;943.0289;;;;
2021/02/11 14:40:32;;;;;;;5.3;2.5;;;;;;;3.85;37.81445;942.9978;;;;
2021/02/11 14:43:02;;;;;;;3.6;2.3;;;;;;;3.6;37.72461;942.9353;;;;
2021/02/11 14:45:30;;;;;;;3.2;2.4;;;;;;;3.44;37.62207;943.0381;;;;
2021/02/11 14:47:55;;;;;;;5.1;1.6;;;;;;;3.29;37.84473;943.0203;;;;
2021/02/11 14:50:20;;;;;;;2.5;1.9;;;;;;;3.37;38.6709;943.0457;;;;
2021/02/11 14:52:45;;;;;;;2.9;2.2;;;;;;;2.71;39.16016;943.0569;;;;
2021/02/11 14:55:13;;;;;;;4.1;2.2;;;;;;;3.04;39.17969;943.0536;;;;
2021/02/11 14:57:38;;;;;;;4.3;2.7;;;;;;;2.41;39.84863;943.1139;;;;
2021/02/11 15:00:13;;;;;;;2.7;1.9;;;;;;;3.09;39.01465;943.0517;;;;
2021/02/11 15:02:41;;;;;;;3.7;2.3;;;;;;;2.56;39.52734;943.0764;;;;
2021/02/11 15:05:06;;;;;;;4.2;2.7;;;;;;;2.75;39.21973;943.1003;;;;
2021/02/11 15:07:31;;;;;;;3.9;2.6;;;;;;;2.83;38.93652;943.0989;;;;
2021/02/11 15:09:56;;;;;;;3.9;3;;;;;;;2.9;39.03125;943.1719;;;;
2021/02/11 15:12:26;;;;;;;4.9;3.2;;;;;;;3.05;38.91113;943.1982;;;;
2021/02/11 15:14:51;;;;;;;4.1;2.5;;;;;;;2.67;39.76172;943.2475;;;;
2021/02/11 15:17:16;;;;;;;5.3;3;;;;;;;3.03;39.36914;943.2366;;;;
2021/02/11 15:19:41;;;;;;;5.1;2.9;;;;;;;2.43;40.00781;943.235;;;;
2021/02/11 15:22:10;;;;;;;3.2;2.5;;;;;;;1.8;41.40332;943.2972;;;;
2021/02/11 15:24:35;;;;;;;4.5;2.5;;;;;;;1.22;44.06055;943.3629;;;;
2021/02/11 15:27:01;;;;;;;3.9;2.2;;;;;;;0.94;44.04297;943.3156;;;;
2021/02/11 15:29:26;;;;;;;2.7;2.4;;;;;;;0.52;45.10352;943.2595;;;;
2021/02/11 15:31:57;;;;;;;4.7;2.2;;;;;;;-1.03;48.75977;943.2925;;;;
2021/02/11 15:34:28;;;;;;;3.5;2.3;;;;;;;-1.44;50.93359;943.4385;;;;
2021/02/11 15:36:53;;;;;;;3.2;2.3;;;;;;;-2.2;52.90234;943.3984;;;;
2021/02/11 15:39:19;;;;;;;3.6;1.8;;;;;;;-2.47;53.96582;943.5502;;;;
2021/02/11 15:41:49;;;;;;;4;2;;;;;;;-2.86;54.5;943.5793;;;;
2021/02/11 15:44:20;;;;;;;9.4;2.4;;;;;;;-2.99;56.04297;943.629;;;;
2021/02/11 15:46:51;;;;;;;7;2.4;;;;;;;-3.42;56.5498;943.6019;;;;
2021/02/11 15:49:18;;;;;;;4.5;1.9;;;;;;;-3.56;56.82813;943.634;;;;
2021/02/11 15:51:51;;;;;;;2.6;1.6;;;;;;;-3.61;57.46191;943.6633;;;;
2021/02/11 15:54:17;;;;;;;2.7;1.6;;;;;;;-3.83;59.04297;943.6309;;;;
2021/02/11 15:56:46;;;;;;;1.6;1.4;;;;;;;-3.83;58.38086;943.6844;;;;